sensor_id;sensor_type;location;lat;lon;timestamp;temperature;humidity
63371;DHT22;49504;48.336;14.472;2022-11-20T00:03:23;25.50;45.30
63371;DHT22;49504;48.336;14.472;2022-11-20T00:08:24;25.50;45.30
63371;DHT22;49504;48.336;14.472;2022-11-20T00:13:25;25.50;45.20
63371;DHT22;49504;48.336;14.472;2022-11-20T00:18:27;25.50;45.30
63371;DHT22;49504;48.336;14.472;2022-11-20T00:23:29;25.50;45.20
63371;DHT22;49504;48.336;14.472;2022-11-20T00:28:30;25.50;45.10
63371;DHT22;49504;48.336;14.472;2022-11-20T00:33:33;25.50;45.20
63371;DHT22;49504;48.336;14.472;2022-11-20T00:38:34;25.50;45.10
63371;DHT22;49504;48.336;14.472;2022-11-20T00:43:36;25.50;45.10
63371;DHT22;49504;48.336;14.472;2022-11-20T00:48:39;25.50;45.10
63371;DHT22;49504;48.336;14.472;2022-11-20T00:53:40;25.50;45.10
63371;DHT22;49504;48.336;14.472;2022-11-20T01:00:47;25.50;44.60
63371;DHT22;49504;48.336;14.472;2022-11-20T01:05:48;25.50;45.10
63371;DHT22;49504;48.336;14.472;2022-11-20T01:10:49;25.50;45.10
63371;DHT22;49504;48.336;14.472;2022-11-20T01:15:51;25.50;45.10
63371;DHT22;49504;48.336;14.472;2022-11-20T01:20:52;25.50;45.10
63371;DHT22;49504;48.336;14.472;2022-11-20T01:25:53;25.50;45.00
63371;DHT22;49504;48.336;14.472;2022-11-20T01:30:55;25.50;45.00
63371;DHT22;49504;48.336;14.472;2022-11-20T01:36:03;25.50;45.10
63371;DHT22;49504;48.336;14.472;2022-11-20T01:43:57;25.50;44.60
63371;DHT22;49504;48.336;14.472;2022-11-20T01:49:02;25.50;45.10
63371;DHT22;49504;48.336;14.472;2022-11-20T01:54:13;25.50;45.10
63371;DHT22;49504;48.336;14.472;2022-11-20T01:59:18;25.50;45.10
63371;DHT22;49504;48.336;14.472;2022-11-20T02:04:20;25.50;45.10
63371;DHT22;49504;48.336;14.472;2022-11-20T02:09:21;25.50;45.00
63371;DHT22;49504;48.336;14.472;2022-11-20T02:14:24;25.50;45.00
63371;DHT22;49504;48.336;14.472;2022-11-20T02:19:27;25.60;45.10
63371;DHT22;49504;48.336;14.472;2022-11-20T02:24:31;25.50;45.10
63371;DHT22;49504;48.336;14.472;2022-11-20T02:29:35;25.50;44.90
63371;DHT22;49504;48.336;14.472;2022-11-20T02:34:43;25.60;45.00
63371;DHT22;49504;48.336;14.472;2022-11-20T02:39:47;25.50;44.90
63371;DHT22;49504;48.336;14.472;2022-11-20T02:48:10;25.50;44.40
63371;DHT22;49504;48.336;14.472;2022-11-20T02:53:11;25.50;45.70
63371;DHT22;49504;48.336;14.472;2022-11-20T02:58:12;25.50;44.90
63371;DHT22;49504;48.336;14.472;2022-11-20T03:03:14;25.50;44.90
63371;DHT22;49504;48.336;14.472;2022-11-20T03:12:24;25.50;44.50
63371;DHT22;49504;48.336;14.472;2022-11-20T03:17:25;25.50;44.80
63371;DHT22;49504;48.336;14.472;2022-11-20T03:22:28;25.50;44.90
63371;DHT22;49504;48.336;14.472;2022-11-20T03:32:29;25.50;44.20
63371;DHT22;49504;48.336;14.472;2022-11-20T03:37:31;25.50;44.80
63371;DHT22;49504;48.336;14.472;2022-11-20T03:42:33;25.50;44.70
63371;DHT22;49504;48.336;14.472;2022-11-20T03:47:35;25.50;44.70
63371;DHT22;49504;48.336;14.472;2022-11-20T03:52:36;25.50;44.60
63371;DHT22;49504;48.336;14.472;2022-11-20T03:57:37;25.50;44.70
63371;DHT22;49504;48.336;14.472;2022-11-20T04:02:39;25.50;44.70
63371;DHT22;49504;48.336;14.472;2022-11-20T04:07:40;25.50;44.50
63371;DHT22;49504;48.336;14.472;2022-11-20T04:12:41;25.50;44.60
63371;DHT22;49504;48.336;14.472;2022-11-20T04:17:43;25.50;44.50
63371;DHT22;49504;48.336;14.472;2022-11-20T04:23:21;25.50;44.00
63371;DHT22;49504;48.336;14.472;2022-11-20T04:33:21;25.50;44.10
63371;DHT22;49504;48.336;14.472;2022-11-20T04:38:22;25.50;44.80
63371;DHT22;49504;48.336;14.472;2022-11-20T04:43:23;25.50;44.60
63371;DHT22;49504;48.336;14.472;2022-11-20T04:48:29;25.50;44.50
63371;DHT22;49504;48.336;14.472;2022-11-20T04:53:30;25.50;44.70
63371;DHT22;49504;48.336;14.472;2022-11-20T04:58:31;25.50;44.70
63371;DHT22;49504;48.336;14.472;2022-11-20T05:03:34;25.50;44.70
63371;DHT22;49504;48.336;14.472;2022-11-20T05:08:35;25.50;44.60
63371;DHT22;49504;48.336;14.472;2022-11-20T05:13:37;25.50;44.60
63371;DHT22;49504;48.336;14.472;2022-11-20T05:18:40;25.50;44.50
63371;DHT22;49504;48.336;14.472;2022-11-20T05:23:42;25.50;44.70
63371;DHT22;49504;48.336;14.472;2022-11-20T05:28:43;25.50;44.70
63371;DHT22;49504;48.336;14.472;2022-11-20T05:33:46;25.50;44.70
63371;DHT22;49504;48.336;14.472;2022-11-20T05:38:47;25.50;45.10
63371;DHT22;49504;48.336;14.472;2022-11-20T05:43:49;25.50;45.00
63371;DHT22;49504;48.336;14.472;2022-11-20T05:48:52;25.50;44.80
63371;DHT22;49504;48.336;14.472;2022-11-20T05:53:53;25.50;45.00
63371;DHT22;49504;48.336;14.472;2022-11-20T05:58:55;25.50;44.90
63371;DHT22;49504;48.336;14.472;2022-11-20T06:04:24;25.40;44.30
63371;DHT22;49504;48.336;14.472;2022-11-20T06:09:26;25.50;45.10
63371;DHT22;49504;48.336;14.472;2022-11-20T06:14:27;25.50;45.00
63371;DHT22;49504;48.336;14.472;2022-11-20T06:19:29;25.50;45.10
63371;DHT22;49504;48.336;14.472;2022-11-20T06:24:30;25.50;45.30
63371;DHT22;49504;48.336;14.472;2022-11-20T06:29:31;25.50;45.40
63371;DHT22;49504;48.336;14.472;2022-11-20T06:34:34;25.50;45.50
63371;DHT22;49504;48.336;14.472;2022-11-20T06:39:35;25.50;45.60
63371;DHT22;49504;48.336;14.472;2022-11-20T06:50:22;25.50;44.90
63371;DHT22;49504;48.336;14.472;2022-11-20T06:55:23;25.50;45.20
63371;DHT22;49504;48.336;14.472;2022-11-20T07:00:24;25.50;45.60
63371;DHT22;49504;48.336;14.472;2022-11-20T07:05:26;25.50;45.60
63371;DHT22;49504;48.336;14.472;2022-11-20T07:10:28;25.50;45.70
63371;DHT22;49504;48.336;14.472;2022-11-20T07:15:28;25.50;45.70
63371;DHT22;49504;48.336;14.472;2022-11-20T07:20:31;25.50;45.70
63371;DHT22;49504;48.336;14.472;2022-11-20T07:25:32;25.50;45.70
63371;DHT22;49504;48.336;14.472;2022-11-20T07:32:10;25.50;44.90
63371;DHT22;49504;48.336;14.472;2022-11-20T07:37:11;25.50;44.90
63371;DHT22;49504;48.336;14.472;2022-11-20T07:42:13;25.50;45.00
63371;DHT22;49504;48.336;14.472;2022-11-20T07:47:15;25.50;45.10
63371;DHT22;49504;48.336;14.472;2022-11-20T07:52:16;25.50;44.00
63371;DHT22;49504;48.336;14.472;2022-11-20T07:57:39;25.40;43.80
63371;DHT22;49504;48.336;14.472;2022-11-20T08:02:42;25.40;44.40
63371;DHT22;49504;48.336;14.472;2022-11-20T08:07:44;25.40;44.60
63371;DHT22;49504;48.336;14.472;2022-11-20T08:17:03;25.30;44.30
63371;DHT22;49504;48.336;14.472;2022-11-20T08:22:04;25.40;45.00
63371;DHT22;49504;48.336;14.472;2022-11-20T08:27:04;25.40;45.20
63371;DHT22;49504;48.336;14.472;2022-11-20T08:32:07;25.40;46.00
63371;DHT22;49504;48.336;14.472;2022-11-20T08:37:08;25.40;45.30
63371;DHT22;49504;48.336;14.472;2022-11-20T08:42:31;25.40;45.10
63371;DHT22;49504;48.336;14.472;2022-11-20T08:47:32;25.40;45.80
63371;DHT22;49504;48.336;14.472;2022-11-20T08:52:33;25.40;47.20
63371;DHT22;49504;48.336;14.472;2022-11-20T08:57:36;25.40;46.30
63371;DHT22;49504;48.336;14.472;2022-11-20T09:02:38;25.40;46.00
63371;DHT22;49504;48.336;14.472;2022-11-20T09:07:39;25.50;46.40
63371;DHT22;49504;48.336;14.472;2022-11-20T09:12:43;25.50;47.30
63371;DHT22;49504;48.336;14.472;2022-11-20T09:17:50;25.50;46.40
63371;DHT22;49504;48.336;14.472;2022-11-20T09:22:52;25.50;47.60
63371;DHT22;49504;48.336;14.472;2022-11-20T09:27:56;25.50;46.60
63371;DHT22;49504;48.336;14.472;2022-11-20T09:35:57;25.50;45.70
63371;DHT22;49504;48.336;14.472;2022-11-20T09:41:03;25.50;46.80
63371;DHT22;49504;48.336;14.472;2022-11-20T09:46:12;25.50;47.50
63371;DHT22;49504;48.336;14.472;2022-11-20T09:52:59;25.50;47.00
63371;DHT22;49504;48.336;14.472;2022-11-20T09:58:27;25.60;48.50
63371;DHT22;49504;48.336;14.472;2022-11-20T10:03:37;25.60;48.20
63371;DHT22;49504;48.336;14.472;2022-11-20T10:08:50;25.60;47.50
63371;DHT22;49504;48.336;14.472;2022-11-20T10:15:05;25.60;47.20
63371;DHT22;49504;48.336;14.472;2022-11-20T10:20:17;25.60;48.60
63371;DHT22;49504;48.336;14.472;2022-11-20T10:25:24;25.50;47.10
63371;DHT22;49504;48.336;14.472;2022-11-20T10:30:29;25.60;46.90
63371;DHT22;49504;48.336;14.472;2022-11-20T10:35:37;25.60;46.90
63371;DHT22;49504;48.336;14.472;2022-11-20T10:40:44;25.60;46.80
63371;DHT22;49504;48.336;14.472;2022-11-20T10:48:11;25.50;46.10
63371;DHT22;49504;48.336;14.472;2022-11-20T10:53:21;25.50;46.60
63371;DHT22;49504;48.336;14.472;2022-11-20T10:58:40;25.50;46.80
63371;DHT22;49504;48.336;14.472;2022-11-20T11:03:46;25.50;46.60
63371;DHT22;49504;48.336;14.472;2022-11-20T11:10:18;25.50;46.10
63371;DHT22;49504;48.336;14.472;2022-11-20T11:15:28;25.50;46.50
63371;DHT22;49504;48.336;14.472;2022-11-20T11:20:30;25.50;46.30
63371;DHT22;49504;48.336;14.472;2022-11-20T11:25:34;25.50;46.40
63371;DHT22;49504;48.336;14.472;2022-11-20T11:30:42;25.50;46.30
63371;DHT22;49504;48.336;14.472;2022-11-20T11:35:47;25.50;46.10
63371;DHT22;49504;48.336;14.472;2022-11-20T11:40:53;25.50;46.10
63371;DHT22;49504;48.336;14.472;2022-11-20T11:45:56;25.50;46.10
63371;DHT22;49504;48.336;14.472;2022-11-20T11:50:57;25.50;46.00
63371;DHT22;49504;48.336;14.472;2022-11-20T11:56:03;25.50;46.00
63371;DHT22;49504;48.336;14.472;2022-11-20T12:01:24;25.50;46.10
63371;DHT22;49504;48.336;14.472;2022-11-20T12:06:30;25.50;46.10
63371;DHT22;49504;48.336;14.472;2022-11-20T12:13:50;25.50;45.60
63371;DHT22;49504;48.336;14.472;2022-11-20T12:18:54;25.50;46.30
63371;DHT22;49504;48.336;14.472;2022-11-20T12:24:32;25.50;46.90
63371;DHT22;49504;48.336;14.472;2022-11-20T12:29:50;25.50;46.20
63371;DHT22;49504;48.336;14.472;2022-11-20T12:35:02;25.50;46.30
63371;DHT22;49504;48.336;14.472;2022-11-20T12:40:22;25.50;46.10
63371;DHT22;49504;48.336;14.472;2022-11-20T12:45:54;25.50;46.30
63371;DHT22;49504;48.336;14.472;2022-11-20T12:51:36;25.50;45.90
63371;DHT22;49504;48.336;14.472;2022-11-20T12:56:49;25.50;45.90
63371;DHT22;49504;48.336;14.472;2022-11-20T13:01:58;25.50;45.70
63371;DHT22;49504;48.336;14.472;2022-11-20T13:07:05;25.50;45.70
63371;DHT22;49504;48.336;14.472;2022-11-20T13:12:11;25.50;45.70
63371;DHT22;49504;48.336;14.472;2022-11-20T13:17:19;25.50;45.70
63371;DHT22;49504;48.336;14.472;2022-11-20T13:22:26;25.50;45.80
63371;DHT22;49504;48.336;14.472;2022-11-20T13:27:28;25.50;45.70
63371;DHT22;49504;48.336;14.472;2022-11-20T13:32:30;25.50;45.50
63371;DHT22;49504;48.336;14.472;2022-11-20T13:37:33;25.50;45.60
63371;DHT22;49504;48.336;14.472;2022-11-20T13:42:37;25.50;45.50
63371;DHT22;49504;48.336;14.472;2022-11-20T13:47:48;25.50;45.50
63371;DHT22;49504;48.336;14.472;2022-11-20T13:52:55;25.50;45.50
63371;DHT22;49504;48.336;14.472;2022-11-20T13:58:20;25.50;45.40
63371;DHT22;49504;48.336;14.472;2022-11-20T14:05:18;25.50;45.00
63371;DHT22;49504;48.336;14.472;2022-11-20T14:10:23;25.50;45.30
63371;DHT22;49504;48.336;14.472;2022-11-20T14:15:28;25.50;45.30
63371;DHT22;49504;48.336;14.472;2022-11-20T14:20:32;25.50;45.30
63371;DHT22;49504;48.336;14.472;2022-11-20T14:25:33;25.50;45.30
63371;DHT22;49504;48.336;14.472;2022-11-20T14:30:39;25.50;45.30
63371;DHT22;49504;48.336;14.472;2022-11-20T14:35:56;25.50;44.90
63371;DHT22;49504;48.336;14.472;2022-11-20T14:41:06;25.50;45.40
63371;DHT22;49504;48.336;14.472;2022-11-20T14:46:08;25.50;45.40
63371;DHT22;49504;48.336;14.472;2022-11-20T14:51:15;25.50;45.50
63371;DHT22;49504;48.336;14.472;2022-11-20T14:56:24;25.50;45.40
63371;DHT22;49504;48.336;14.472;2022-11-20T15:01:26;25.50;45.40
63371;DHT22;49504;48.336;14.472;2022-11-20T15:08:26;25.50;45.00
63371;DHT22;49504;48.336;14.472;2022-11-20T15:15:48;25.40;45.00
63371;DHT22;49504;48.336;14.472;2022-11-20T15:20:50;25.50;45.60
63371;DHT22;49504;48.336;14.472;2022-11-20T15:25:52;25.40;45.70
63371;DHT22;49504;48.336;14.472;2022-11-20T15:30:55;25.50;45.70
63371;DHT22;49504;48.336;14.472;2022-11-20T15:35:56;25.50;45.70
63371;DHT22;49504;48.336;14.472;2022-11-20T15:40:57;25.40;46.20
63371;DHT22;49504;48.336;14.472;2022-11-20T15:46:03;25.50;45.80
63371;DHT22;49504;48.336;14.472;2022-11-20T15:51:11;25.40;45.90
63371;DHT22;49504;48.336;14.472;2022-11-20T15:56:16;25.40;46.00
63371;DHT22;49504;48.336;14.472;2022-11-20T16:01:21;25.50;45.80
63371;DHT22;49504;48.336;14.472;2022-11-20T16:06:22;25.50;45.70
63371;DHT22;49504;48.336;14.472;2022-11-20T16:11:25;25.40;45.70
63371;DHT22;49504;48.336;14.472;2022-11-20T16:21:38;25.40;45.00
63371;DHT22;49504;48.336;14.472;2022-11-20T16:26:40;25.50;45.50
63371;DHT22;49504;48.336;14.472;2022-11-20T16:31:41;25.50;45.50
63371;DHT22;49504;48.336;14.472;2022-11-20T16:40:00;25.40;45.00
63371;DHT22;49504;48.336;14.472;2022-11-20T16:45:01;25.40;45.50
63371;DHT22;49504;48.336;14.472;2022-11-20T16:53:26;25.50;45.10
63371;DHT22;49504;48.336;14.472;2022-11-20T16:58:27;25.50;45.40
63371;DHT22;49504;48.336;14.472;2022-11-20T17:03:28;25.50;45.40
63371;DHT22;49504;48.336;14.472;2022-11-20T17:08:30;25.50;45.40
63371;DHT22;49504;48.336;14.472;2022-11-20T17:13:31;25.50;45.40
63371;DHT22;49504;48.336;14.472;2022-11-20T17:18:32;25.50;45.40
63371;DHT22;49504;48.336;14.472;2022-11-20T17:23:36;25.50;45.40
63371;DHT22;49504;48.336;14.472;2022-11-20T17:28:38;25.50;45.20
63371;DHT22;49504;48.336;14.472;2022-11-20T17:33:41;25.50;45.60
63371;DHT22;49504;48.336;14.472;2022-11-20T17:38:45;25.50;45.30
63371;DHT22;49504;48.336;14.472;2022-11-20T17:47:06;25.50;44.90
63371;DHT22;49504;48.336;14.472;2022-11-20T17:52:15;25.50;45.30
63371;DHT22;49504;48.336;14.472;2022-11-20T17:57:22;25.50;45.30
63371;DHT22;49504;48.336;14.472;2022-11-20T18:02:35;25.50;45.20
63371;DHT22;49504;48.336;14.472;2022-11-20T18:07:36;25.50;45.30
63371;DHT22;49504;48.336;14.472;2022-11-20T18:12:56;25.50;45.10
63371;DHT22;49504;48.336;14.472;2022-11-20T18:17:59;25.50;45.20
63371;DHT22;49504;48.336;14.472;2022-11-20T18:23:00;25.50;45.10
63371;DHT22;49504;48.336;14.472;2022-11-20T18:28:01;25.50;45.50
63371;DHT22;49504;48.336;14.472;2022-11-20T18:33:03;25.50;45.10
63371;DHT22;49504;48.336;14.472;2022-11-20T18:38:04;25.60;45.40
63371;DHT22;49504;48.336;14.472;2022-11-20T18:43:08;25.50;45.60
63371;DHT22;49504;48.336;14.472;2022-11-20T18:48:11;25.50;45.70
63371;DHT22;49504;48.336;14.472;2022-11-20T18:53:12;25.50;45.50
63371;DHT22;49504;48.336;14.472;2022-11-20T18:58:13;25.60;45.80
63371;DHT22;49504;48.336;14.472;2022-11-20T19:03:15;25.60;45.70
63371;DHT22;49504;48.336;14.472;2022-11-20T19:08:16;25.60;45.60
63371;DHT22;49504;48.336;14.472;2022-11-20T19:13:17;25.60;45.70
63371;DHT22;49504;48.336;14.472;2022-11-20T19:18:19;25.60;45.60
63371;DHT22;49504;48.336;14.472;2022-11-20T19:23:20;25.60;45.60
63371;DHT22;49504;48.336;14.472;2022-11-20T19:28:21;25.50;45.50
63371;DHT22;49504;48.336;14.472;2022-11-20T19:35:56;25.60;45.00
63371;DHT22;49504;48.336;14.472;2022-11-20T19:40:57;25.60;45.50
63371;DHT22;49504;48.336;14.472;2022-11-20T19:45:58;25.50;45.40
63371;DHT22;49504;48.336;14.472;2022-11-20T19:51:09;25.50;45.40
63371;DHT22;49504;48.336;14.472;2022-11-20T19:56:10;25.50;45.40
63371;DHT22;49504;48.336;14.472;2022-11-20T20:02:25;25.50;45.00
63371;DHT22;49504;48.336;14.472;2022-11-20T20:07:26;25.60;45.50
63371;DHT22;49504;48.336;14.472;2022-11-20T20:12:27;25.50;45.60
63371;DHT22;49504;48.336;14.472;2022-11-20T20:17:30;25.60;46.00
63371;DHT22;49504;48.336;14.472;2022-11-20T20:24:16;25.50;45.30
63371;DHT22;49504;48.336;14.472;2022-11-20T20:29:17;25.60;46.30
63371;DHT22;49504;48.336;14.472;2022-11-20T20:34:18;25.50;46.40
63371;DHT22;49504;48.336;14.472;2022-11-20T20:39:20;25.60;46.60
63371;DHT22;49504;48.336;14.472;2022-11-20T20:44:21;25.50;46.50
63371;DHT22;49504;48.336;14.472;2022-11-20T20:49:22;25.50;46.60
63371;DHT22;49504;48.336;14.472;2022-11-20T20:54:24;25.50;46.70
63371;DHT22;49504;48.336;14.472;2022-11-20T20:59:25;25.50;46.60
63371;DHT22;49504;48.336;14.472;2022-11-20T21:04:26;25.60;46.70
63371;DHT22;49504;48.336;14.472;2022-11-20T21:09:28;25.50;46.60
63371;DHT22;49504;48.336;14.472;2022-11-20T21:15:51;25.50;45.90
63371;DHT22;49504;48.336;14.472;2022-11-20T21:20:53;25.60;46.70
63371;DHT22;49504;48.336;14.472;2022-11-20T21:25:54;25.60;46.70
63371;DHT22;49504;48.336;14.472;2022-11-20T21:31:04;25.60;46.70
63371;DHT22;49504;48.336;14.472;2022-11-20T21:36:06;25.50;46.60
63371;DHT22;49504;48.336;14.472;2022-11-20T21:41:09;25.60;46.70
63371;DHT22;49504;48.336;14.472;2022-11-20T21:46:13;25.60;46.70
63371;DHT22;49504;48.336;14.472;2022-11-20T21:51:16;25.50;46.60
63371;DHT22;49504;48.336;14.472;2022-11-20T21:56:20;25.50;47.30
63371;DHT22;49504;48.336;14.472;2022-11-20T22:01:25;25.50;46.60
63371;DHT22;49504;48.336;14.472;2022-11-20T22:06:30;25.50;46.60
63371;DHT22;49504;48.336;14.472;2022-11-20T22:11:31;25.50;46.50
63371;DHT22;49504;48.336;14.472;2022-11-20T22:16:34;25.60;46.80
63371;DHT22;49504;48.336;14.472;2022-11-20T22:21:38;25.50;46.50
63371;DHT22;49504;48.336;14.472;2022-11-20T22:26:39;25.60;46.70
63371;DHT22;49504;48.336;14.472;2022-11-20T22:33:02;25.50;46.10
63371;DHT22;49504;48.336;14.472;2022-11-20T22:38:03;25.50;46.80
63371;DHT22;49504;48.336;14.472;2022-11-20T22:44:13;25.50;46.10
63371;DHT22;49504;48.336;14.472;2022-11-20T22:49:14;25.60;46.70
63371;DHT22;49504;48.336;14.472;2022-11-20T22:54:15;25.60;46.50
63371;DHT22;49504;48.336;14.472;2022-11-20T22:59:17;25.60;46.40
63371;DHT22;49504;48.336;14.472;2022-11-20T23:04:18;25.50;46.10
63371;DHT22;49504;48.336;14.472;2022-11-20T23:09:19;25.50;46.20
63371;DHT22;49504;48.336;14.472;2022-11-20T23:14:22;25.50;46.30
63371;DHT22;49504;48.336;14.472;2022-11-20T23:21:50;25.60;45.80
63371;DHT22;49504;48.336;14.472;2022-11-20T23:26:51;25.60;46.30
63371;DHT22;49504;48.336;14.472;2022-11-20T23:31:52;25.60;46.20
63371;DHT22;49504;48.336;14.472;2022-11-20T23:36:55;25.60;46.20
63371;DHT22;49504;48.336;14.472;2022-11-20T23:41:56;25.60;46.00
63371;DHT22;49504;48.336;14.472;2022-11-20T23:46:56;25.60;45.80
63371;DHT22;49504;48.336;14.472;2022-11-20T23:51:59;25.60;45.70
63371;DHT22;49504;48.336;14.472;2022-11-20T23:57:00;25.60;45.80
